sensor_id;sensor_type;location;lat;lon;timestamp;P1;durP1;ratioP1;P2;durP2;ratioP2
11699;SDS011;5906;51.660;6.674;2023-10-09T00:02:11;27.17;;;13.00;;
11699;SDS011;5906;51.660;6.674;2023-10-09T00:04:40;28.90;;;12.70;;
11699;SDS011;5906;51.660;6.674;2023-10-09T00:07:09;33.57;;;14.50;;
11699;SDS011;5906;51.660;6.674;2023-10-09T00:09:38;34.17;;;14.70;;
11699;SDS011;5906;51.660;6.674;2023-10-09T00:12:18;31.17;;;13.80;;
11699;SDS011;5906;51.660;6.674;2023-10-09T00:14:50;29.50;;;16.10;;
11699;SDS011;5906;51.660;6.674;2023-10-09T00:17:22;38.53;;;17.53;;
11699;SDS011;5906;51.660;6.674;2023-10-09T00:19:50;32.10;;;15.27;;
11699;SDS011;5906;51.660;6.674;2023-10-09T00:22:26;29.00;;;13.87;;
11699;SDS011;5906;51.660;6.674;2023-10-09T00:24:55;37.30;;;16.20;;
11699;SDS011;5906;51.660;6.674;2023-10-09T00:27:39;41.43;;;15.17;;
11699;SDS011;5906;51.660;6.674;2023-10-09T00:30:13;35.60;;;15.80;;
11699;SDS011;5906;51.660;6.674;2023-10-09T00:32:48;35.20;;;14.27;;
11699;SDS011;5906;51.660;6.674;2023-10-09T00:35:25;26.17;;;12.80;;
11699;SDS011;5906;51.660;6.674;2023-10-09T00:38:04;32.10;;;13.30;;
11699;SDS011;5906;51.660;6.674;2023-10-09T00:41:01;27.33;;;13.97;;
11699;SDS011;5906;51.660;6.674;2023-10-09T00:43:46;26.10;;;12.87;;
11699;SDS011;5906;51.660;6.674;2023-10-09T00:46:20;24.73;;;13.10;;
11699;SDS011;5906;51.660;6.674;2023-10-09T00:48:48;26.10;;;13.10;;
11699;SDS011;5906;51.660;6.674;2023-10-09T00:51:20;36.77;;;12.90;;
11699;SDS011;5906;51.660;6.674;2023-10-09T00:53:49;25.87;;;13.37;;
11699;SDS011;5906;51.660;6.674;2023-10-09T00:56:20;34.13;;;14.20;;
11699;SDS011;5906;51.660;6.674;2023-10-09T00:58:51;30.13;;;12.60;;
11699;SDS011;5906;51.660;6.674;2023-10-09T01:01:33;26.07;;;12.80;;
11699;SDS011;5906;51.660;6.674;2023-10-09T01:04:03;26.70;;;13.60;;
11699;SDS011;5906;51.660;6.674;2023-10-09T01:06:50;33.17;;;13.60;;
11699;SDS011;5906;51.660;6.674;2023-10-09T01:09:34;41.27;;;13.33;;
11699;SDS011;5906;51.660;6.674;2023-10-09T01:12:04;31.97;;;13.83;;
11699;SDS011;5906;51.660;6.674;2023-10-09T01:14:31;26.47;;;13.77;;
11699;SDS011;5906;51.660;6.674;2023-10-09T01:17:07;28.50;;;14.10;;
11699;SDS011;5906;51.660;6.674;2023-10-09T01:19:35;28.07;;;14.07;;
11699;SDS011;5906;51.660;6.674;2023-10-09T01:22:03;30.00;;;14.20;;
11699;SDS011;5906;51.660;6.674;2023-10-09T01:24:39;35.33;;;15.50;;
11699;SDS011;5906;51.660;6.674;2023-10-09T01:27:07;32.87;;;15.13;;
11699;SDS011;5906;51.660;6.674;2023-10-09T01:29:42;30.67;;;14.03;;
11699;SDS011;5906;51.660;6.674;2023-10-09T01:32:10;25.10;;;12.93;;
11699;SDS011;5906;51.660;6.674;2023-10-09T01:34:46;28.07;;;14.20;;
11699;SDS011;5906;51.660;6.674;2023-10-09T01:37:18;27.10;;;14.20;;
11699;SDS011;5906;51.660;6.674;2023-10-09T01:39:50;30.50;;;14.03;;
11699;SDS011;5906;51.660;6.674;2023-10-09T01:42:18;37.87;;;16.00;;
11699;SDS011;5906;51.660;6.674;2023-10-09T01:45:01;34.73;;;15.53;;
11699;SDS011;5906;51.660;6.674;2023-10-09T01:47:38;39.57;;;15.60;;
11699;SDS011;5906;51.660;6.674;2023-10-09T01:50:06;32.10;;;15.87;;
11699;SDS011;5906;51.660;6.674;2023-10-09T01:52:48;36.17;;;16.10;;
11699;SDS011;5906;51.660;6.674;2023-10-09T01:55:17;39.70;;;18.13;;
11699;SDS011;5906;51.660;6.674;2023-10-09T01:58:06;38.70;;;18.70;;
11699;SDS011;5906;51.660;6.674;2023-10-09T02:00:54;38.67;;;16.80;;
11699;SDS011;5906;51.660;6.674;2023-10-09T02:03:22;36.17;;;18.60;;
11699;SDS011;5906;51.660;6.674;2023-10-09T02:05:53;37.50;;;18.27;;
11699;SDS011;5906;51.660;6.674;2023-10-09T02:08:43;36.07;;;18.10;;
11699;SDS011;5906;51.660;6.674;2023-10-09T02:11:16;44.43;;;17.30;;
11699;SDS011;5906;51.660;6.674;2023-10-09T02:13:51;35.40;;;18.33;;
11699;SDS011;5906;51.660;6.674;2023-10-09T02:16:21;36.67;;;18.53;;
11699;SDS011;5906;51.660;6.674;2023-10-09T02:18:55;32.23;;;18.27;;
11699;SDS011;5906;51.660;6.674;2023-10-09T02:21:22;40.70;;;19.80;;
11699;SDS011;5906;51.660;6.674;2023-10-09T02:24:06;34.20;;;17.97;;
11699;SDS011;5906;51.660;6.674;2023-10-09T02:26:52;39.70;;;17.37;;
11699;SDS011;5906;51.660;6.674;2023-10-09T02:29:19;37.60;;;18.77;;
11699;SDS011;5906;51.660;6.674;2023-10-09T02:31:51;41.37;;;17.97;;
11699;SDS011;5906;51.660;6.674;2023-10-09T02:34:18;44.20;;;19.70;;
11699;SDS011;5906;51.660;6.674;2023-10-09T02:36:48;41.37;;;19.47;;
11699;SDS011;5906;51.660;6.674;2023-10-09T02:39:16;47.10;;;19.50;;
11699;SDS011;5906;51.660;6.674;2023-10-09T02:41:56;38.00;;;19.17;;
11699;SDS011;5906;51.660;6.674;2023-10-09T02:44:47;38.37;;;19.67;;
11699;SDS011;5906;51.660;6.674;2023-10-09T02:47:16;46.73;;;19.80;;
11699;SDS011;5906;51.660;6.674;2023-10-09T02:49:47;36.63;;;18.07;;
11699;SDS011;5906;51.660;6.674;2023-10-09T02:52:14;48.53;;;20.40;;
11699;SDS011;5906;51.660;6.674;2023-10-09T02:54:45;38.33;;;19.27;;
11699;SDS011;5906;51.660;6.674;2023-10-09T02:57:13;36.30;;;19.07;;
11699;SDS011;5906;51.660;6.674;2023-10-09T02:59:50;35.60;;;19.50;;
11699;SDS011;5906;51.660;6.674;2023-10-09T03:02:19;38.30;;;20.70;;
11699;SDS011;5906;51.660;6.674;2023-10-09T03:04:46;37.27;;;18.47;;
11699;SDS011;5906;51.660;6.674;2023-10-09T03:07:13;40.83;;;20.80;;
11699;SDS011;5906;51.660;6.674;2023-10-09T03:09:40;38.67;;;20.50;;
11699;SDS011;5906;51.660;6.674;2023-10-09T03:12:07;44.90;;;21.20;;
11699;SDS011;5906;51.660;6.674;2023-10-09T03:14:39;35.23;;;19.00;;
11699;SDS011;5906;51.660;6.674;2023-10-09T03:17:10;36.30;;;18.67;;
11699;SDS011;5906;51.660;6.674;2023-10-09T03:19:39;39.67;;;18.30;;
11699;SDS011;5906;51.660;6.674;2023-10-09T03:22:06;36.40;;;19.00;;
11699;SDS011;5906;51.660;6.674;2023-10-09T03:24:38;37.50;;;18.70;;
11699;SDS011;5906;51.660;6.674;2023-10-09T03:27:16;33.30;;;17.40;;
11699;SDS011;5906;51.660;6.674;2023-10-09T03:29:42;33.63;;;19.73;;
11699;SDS011;5906;51.660;6.674;2023-10-09T03:32:15;40.40;;;18.50;;
11699;SDS011;5906;51.660;6.674;2023-10-09T03:34:42;37.90;;;18.70;;
11699;SDS011;5906;51.660;6.674;2023-10-09T03:37:10;49.07;;;20.20;;
11699;SDS011;5906;51.660;6.674;2023-10-09T03:39:48;35.13;;;18.63;;
11699;SDS011;5906;51.660;6.674;2023-10-09T03:42:21;34.00;;;17.83;;
11699;SDS011;5906;51.660;6.674;2023-10-09T03:44:49;32.77;;;18.27;;
11699;SDS011;5906;51.660;6.674;2023-10-09T03:47:20;31.93;;;18.00;;
11699;SDS011;5906;51.660;6.674;2023-10-09T03:49:49;35.60;;;18.20;;
11699;SDS011;5906;51.660;6.674;2023-10-09T03:52:20;34.63;;;16.97;;
11699;SDS011;5906;51.660;6.674;2023-10-09T03:54:52;30.83;;;17.50;;
11699;SDS011;5906;51.660;6.674;2023-10-09T03:57:19;32.90;;;18.60;;
11699;SDS011;5906;51.660;6.674;2023-10-09T03:59:47;28.60;;;17.43;;
11699;SDS011;5906;51.660;6.674;2023-10-09T04:02:14;45.23;;;18.53;;
11699;SDS011;5906;51.660;6.674;2023-10-09T04:04:42;32.80;;;17.63;;
11699;SDS011;5906;51.660;6.674;2023-10-09T04:07:14;34.50;;;18.07;;
11699;SDS011;5906;51.660;6.674;2023-10-09T04:09:44;35.20;;;18.10;;
11699;SDS011;5906;51.660;6.674;2023-10-09T04:12:14;35.47;;;17.50;;
11699;SDS011;5906;51.660;6.674;2023-10-09T04:14:51;32.30;;;17.70;;
11699;SDS011;5906;51.660;6.674;2023-10-09T04:17:23;27.30;;;16.70;;
11699;SDS011;5906;51.660;6.674;2023-10-09T04:19:51;37.47;;;18.43;;
11699;SDS011;5906;51.660;6.674;2023-10-09T04:22:37;28.47;;;16.40;;
11699;SDS011;5906;51.660;6.674;2023-10-09T04:25:25;38.03;;;16.73;;
11699;SDS011;5906;51.660;6.674;2023-10-09T04:27:53;35.30;;;17.20;;
11699;SDS011;5906;51.660;6.674;2023-10-09T04:30:36;32.77;;;16.87;;
11699;SDS011;5906;51.660;6.674;2023-10-09T04:33:07;32.67;;;18.20;;
11699;SDS011;5906;51.660;6.674;2023-10-09T04:35:55;31.10;;;17.10;;
11699;SDS011;5906;51.660;6.674;2023-10-09T04:38:58;35.53;;;17.40;;
11699;SDS011;5906;51.660;6.674;2023-10-09T04:41:28;24.73;;;15.20;;
11699;SDS011;5906;51.660;6.674;2023-10-09T04:44:07;34.73;;;17.67;;
11699;SDS011;5906;51.660;6.674;2023-10-09T04:46:55;36.33;;;16.40;;
11699;SDS011;5906;51.660;6.674;2023-10-09T04:49:41;28.20;;;17.40;;
11699;SDS011;5906;51.660;6.674;2023-10-09T04:52:17;30.93;;;16.73;;
11699;SDS011;5906;51.660;6.674;2023-10-09T04:54:51;33.90;;;15.83;;
11699;SDS011;5906;51.660;6.674;2023-10-09T04:57:37;29.10;;;15.87;;
11699;SDS011;5906;51.660;6.674;2023-10-09T05:00:10;26.40;;;15.37;;
11699;SDS011;5906;51.660;6.674;2023-10-09T05:02:54;23.43;;;15.43;;
11699;SDS011;5906;51.660;6.674;2023-10-09T05:05:31;25.03;;;15.50;;
11699;SDS011;5906;51.660;6.674;2023-10-09T05:10:45;26.87;;;16.23;;
11699;SDS011;5906;51.660;6.674;2023-10-09T05:13:26;23.93;;;15.57;;
11699;SDS011;5906;51.660;6.674;2023-10-09T05:18:49;24.60;;;15.07;;
11699;SDS011;5906;51.660;6.674;2023-10-09T05:21:23;23.50;;;15.10;;
11699;SDS011;5906;51.660;6.674;2023-10-09T05:23:59;27.37;;;15.50;;
11699;SDS011;5906;51.660;6.674;2023-10-09T05:26:41;30.90;;;14.70;;
11699;SDS011;5906;51.660;6.674;2023-10-09T05:29:16;28.40;;;14.40;;
11699;SDS011;5906;51.660;6.674;2023-10-09T05:32:01;25.97;;;14.77;;
11699;SDS011;5906;51.660;6.674;2023-10-09T05:34:38;23.03;;;14.90;;
11699;SDS011;5906;51.660;6.674;2023-10-09T05:37:29;22.73;;;14.30;;
11699;SDS011;5906;51.660;6.674;2023-10-09T05:40:05;30.00;;;14.73;;
11699;SDS011;5906;51.660;6.674;2023-10-09T05:42:45;26.07;;;15.17;;
11699;SDS011;5906;51.660;6.674;2023-10-09T05:45:24;24.57;;;14.43;;
11699;SDS011;5906;51.660;6.674;2023-10-09T05:48:10;26.97;;;15.23;;
11699;SDS011;5906;51.660;6.674;2023-10-09T05:50:40;29.23;;;15.80;;
11699;SDS011;5906;51.660;6.674;2023-10-09T05:53:25;27.33;;;14.37;;
11699;SDS011;5906;51.660;6.674;2023-10-09T05:56:11;25.90;;;16.00;;
11699;SDS011;5906;51.660;6.674;2023-10-09T05:58:56;27.27;;;14.30;;
11699;SDS011;5906;51.660;6.674;2023-10-09T06:01:26;24.20;;;14.53;;
11699;SDS011;5906;51.660;6.674;2023-10-09T06:04:11;25.03;;;16.30;;
11699;SDS011;5906;51.660;6.674;2023-10-09T06:06:42;26.90;;;15.53;;
11699;SDS011;5906;51.660;6.674;2023-10-09T06:09:14;26.97;;;14.10;;
11699;SDS011;5906;51.660;6.674;2023-10-09T06:11:43;25.57;;;15.20;;
11699;SDS011;5906;51.660;6.674;2023-10-09T06:14:37;33.83;;;15.67;;
11699;SDS011;5906;51.660;6.674;2023-10-09T06:17:04;20.87;;;12.80;;
11699;SDS011;5906;51.660;6.674;2023-10-09T06:19:41;27.20;;;15.37;;
11699;SDS011;5906;51.660;6.674;2023-10-09T06:22:10;29.40;;;15.73;;
11699;SDS011;5906;51.660;6.674;2023-10-09T06:24:56;32.10;;;15.30;;
11699;SDS011;5906;51.660;6.674;2023-10-09T06:27:24;25.47;;;14.57;;
11699;SDS011;5906;51.660;6.674;2023-10-09T06:29:57;35.00;;;16.17;;
11699;SDS011;5906;51.660;6.674;2023-10-09T06:32:43;31.97;;;16.73;;
11699;SDS011;5906;51.660;6.674;2023-10-09T06:35:29;23.63;;;14.83;;
11699;SDS011;5906;51.660;6.674;2023-10-09T06:37:59;28.10;;;15.30;;
11699;SDS011;5906;51.660;6.674;2023-10-09T06:40:30;26.33;;;15.73;;
11699;SDS011;5906;51.660;6.674;2023-10-09T06:43:34;26.97;;;15.63;;
11699;SDS011;5906;51.660;6.674;2023-10-09T06:46:03;28.90;;;15.13;;
11699;SDS011;5906;51.660;6.674;2023-10-09T06:48:48;23.50;;;14.90;;
11699;SDS011;5906;51.660;6.674;2023-10-09T06:51:24;27.93;;;17.03;;
11699;SDS011;5906;51.660;6.674;2023-10-09T06:53:55;27.47;;;15.80;;
11699;SDS011;5906;51.660;6.674;2023-10-09T06:56:26;29.50;;;14.97;;
11699;SDS011;5906;51.660;6.674;2023-10-09T06:59:03;28.60;;;16.53;;
11699;SDS011;5906;51.660;6.674;2023-10-09T07:01:42;27.80;;;15.27;;
11699;SDS011;5906;51.660;6.674;2023-10-09T07:04:14;35.93;;;14.50;;
11699;SDS011;5906;51.660;6.674;2023-10-09T07:06:59;27.13;;;15.43;;
11699;SDS011;5906;51.660;6.674;2023-10-09T07:09:28;26.07;;;15.37;;
11699;SDS011;5906;51.660;6.674;2023-10-09T07:12:33;29.70;;;15.40;;
11699;SDS011;5906;51.660;6.674;2023-10-09T07:15:00;29.37;;;15.40;;
11699;SDS011;5906;51.660;6.674;2023-10-09T07:17:49;24.40;;;14.30;;
11699;SDS011;5906;51.660;6.674;2023-10-09T07:20:19;29.07;;;15.50;;
11699;SDS011;5906;51.660;6.674;2023-10-09T07:23:04;29.23;;;15.07;;
11699;SDS011;5906;51.660;6.674;2023-10-09T07:25:41;29.83;;;15.63;;
11699;SDS011;5906;51.660;6.674;2023-10-09T07:28:09;29.37;;;15.10;;
11699;SDS011;5906;51.660;6.674;2023-10-09T07:30:55;35.50;;;15.13;;
11699;SDS011;5906;51.660;6.674;2023-10-09T07:33:26;30.27;;;15.07;;
11699;SDS011;5906;51.660;6.674;2023-10-09T07:36:03;24.80;;;15.37;;
11699;SDS011;5906;51.660;6.674;2023-10-09T07:38:34;33.00;;;16.30;;
11699;SDS011;5906;51.660;6.674;2023-10-09T07:41:04;26.30;;;15.47;;
11699;SDS011;5906;51.660;6.674;2023-10-09T07:43:31;30.20;;;15.93;;
11699;SDS011;5906;51.660;6.674;2023-10-09T07:46:06;27.50;;;15.93;;
11699;SDS011;5906;51.660;6.674;2023-10-09T07:48:53;29.93;;;15.30;;
11699;SDS011;5906;51.660;6.674;2023-10-09T07:51:22;26.57;;;16.17;;
11699;SDS011;5906;51.660;6.674;2023-10-09T07:53:50;32.07;;;16.67;;
11699;SDS011;5906;51.660;6.674;2023-10-09T07:56:24;29.57;;;16.80;;
11699;SDS011;5906;51.660;6.674;2023-10-09T07:58:51;32.53;;;16.43;;
11699;SDS011;5906;51.660;6.674;2023-10-09T08:01:18;34.53;;;16.27;;
11699;SDS011;5906;51.660;6.674;2023-10-09T08:03:54;31.97;;;16.00;;
11699;SDS011;5906;51.660;6.674;2023-10-09T08:06:28;26.00;;;15.63;;
11699;SDS011;5906;51.660;6.674;2023-10-09T08:09:05;28.50;;;16.20;;
11699;SDS011;5906;51.660;6.674;2023-10-09T08:11:48;38.77;;;16.80;;
11699;SDS011;5906;51.660;6.674;2023-10-09T08:14:36;29.87;;;16.87;;
11699;SDS011;5906;51.660;6.674;2023-10-09T08:17:02;25.70;;;15.47;;
11699;SDS011;5906;51.660;6.674;2023-10-09T08:19:48;27.60;;;17.17;;
11699;SDS011;5906;51.660;6.674;2023-10-09T08:22:24;25.70;;;16.20;;
11699;SDS011;5906;51.660;6.674;2023-10-09T08:24:52;26.97;;;15.70;;
11699;SDS011;5906;51.660;6.674;2023-10-09T08:29:59;32.37;;;15.97;;
11699;SDS011;5906;51.660;6.674;2023-10-09T08:32:46;32.83;;;16.23;;
11699;SDS011;5906;51.660;6.674;2023-10-09T08:35:33;34.63;;;15.97;;
11699;SDS011;5906;51.660;6.674;2023-10-09T08:38:02;30.33;;;16.67;;
11699;SDS011;5906;51.660;6.674;2023-10-09T08:40:35;34.10;;;17.00;;
11699;SDS011;5906;51.660;6.674;2023-10-09T08:43:27;30.37;;;17.03;;
11699;SDS011;5906;51.660;6.674;2023-10-09T08:45:59;29.17;;;16.33;;
11699;SDS011;5906;51.660;6.674;2023-10-09T08:48:27;32.57;;;16.00;;
11699;SDS011;5906;51.660;6.674;2023-10-09T08:50:55;25.33;;;15.63;;
11699;SDS011;5906;51.660;6.674;2023-10-09T08:53:23;29.60;;;18.10;;
11699;SDS011;5906;51.660;6.674;2023-10-09T08:55:50;32.23;;;16.77;;
11699;SDS011;5906;51.660;6.674;2023-10-09T08:58:17;34.20;;;16.43;;
11699;SDS011;5906;51.660;6.674;2023-10-09T09:00:47;30.10;;;16.00;;
11699;SDS011;5906;51.660;6.674;2023-10-09T09:03:16;26.00;;;16.97;;
11699;SDS011;5906;51.660;6.674;2023-10-09T09:05:45;38.27;;;17.00;;
11699;SDS011;5906;51.660;6.674;2023-10-09T09:08:25;35.07;;;16.60;;
11699;SDS011;5906;51.660;6.674;2023-10-09T09:10:58;29.67;;;16.60;;
11699;SDS011;5906;51.660;6.674;2023-10-09T09:13:45;27.30;;;15.90;;
11699;SDS011;5906;51.660;6.674;2023-10-09T09:16:19;28.13;;;17.70;;
11699;SDS011;5906;51.660;6.674;2023-10-09T09:18:51;29.90;;;17.30;;
11699;SDS011;5906;51.660;6.674;2023-10-09T09:21:28;29.43;;;17.53;;
11699;SDS011;5906;51.660;6.674;2023-10-09T09:24:01;30.90;;;16.90;;
11699;SDS011;5906;51.660;6.674;2023-10-09T09:26:38;29.47;;;16.47;;
11699;SDS011;5906;51.660;6.674;2023-10-09T09:29:14;28.93;;;15.47;;
11699;SDS011;5906;51.660;6.674;2023-10-09T09:31:51;27.23;;;16.63;;
11699;SDS011;5906;51.660;6.674;2023-10-09T09:34:20;34.53;;;16.87;;
11699;SDS011;5906;51.660;6.674;2023-10-09T09:36:56;34.83;;;17.10;;
11699;SDS011;5906;51.660;6.674;2023-10-09T09:39:26;26.67;;;15.17;;
11699;SDS011;5906;51.660;6.674;2023-10-09T09:42:14;25.63;;;15.40;;
11699;SDS011;5906;51.660;6.674;2023-10-09T09:44:43;29.37;;;16.20;;
11699;SDS011;5906;51.660;6.674;2023-10-09T09:47:15;26.20;;;15.80;;
11699;SDS011;5906;51.660;6.674;2023-10-09T09:49:55;29.13;;;15.37;;
11699;SDS011;5906;51.660;6.674;2023-10-09T09:52:30;29.97;;;16.60;;
11699;SDS011;5906;51.660;6.674;2023-10-09T09:55:07;25.23;;;15.30;;
11699;SDS011;5906;51.660;6.674;2023-10-09T09:57:41;38.13;;;16.10;;
11699;SDS011;5906;51.660;6.674;2023-10-09T10:00:22;32.20;;;16.97;;
11699;SDS011;5906;51.660;6.674;2023-10-09T10:03:01;26.83;;;15.90;;
11699;SDS011;5906;51.660;6.674;2023-10-09T10:05:32;33.30;;;17.07;;
11699;SDS011;5906;51.660;6.674;2023-10-09T10:08:02;28.80;;;15.87;;
11699;SDS011;5906;51.660;6.674;2023-10-09T10:13:16;31.13;;;16.43;;
11699;SDS011;5906;51.660;6.674;2023-10-09T10:16:04;21.80;;;14.03;;
11699;SDS011;5906;51.660;6.674;2023-10-09T10:18:57;27.93;;;16.20;;
11699;SDS011;5906;51.660;6.674;2023-10-09T10:21:34;35.60;;;17.00;;
11699;SDS011;5906;51.660;6.674;2023-10-09T10:35:23;26.63;;;16.17;;
11699;SDS011;5906;51.660;6.674;2023-10-09T10:38:21;30.67;;;15.83;;
11699;SDS011;5906;51.660;6.674;2023-10-09T10:41:10;32.83;;;16.43;;
11699;SDS011;5906;51.660;6.674;2023-10-09T10:43:41;26.83;;;15.50;;
11699;SDS011;5906;51.660;6.674;2023-10-09T10:46:19;30.90;;;16.17;;
11699;SDS011;5906;51.660;6.674;2023-10-09T10:48:50;28.37;;;15.87;;
11699;SDS011;5906;51.660;6.674;2023-10-09T10:51:35;32.47;;;15.07;;
11699;SDS011;5906;51.660;6.674;2023-10-09T10:54:08;28.57;;;16.23;;
11699;SDS011;5906;51.660;6.674;2023-10-09T10:56:54;30.83;;;16.97;;
11699;SDS011;5906;51.660;6.674;2023-10-09T10:59:25;35.10;;;16.70;;
11699;SDS011;5906;51.660;6.674;2023-10-09T11:02:09;29.50;;;16.33;;
11699;SDS011;5906;51.660;6.674;2023-10-09T11:04:37;21.43;;;14.23;;
11699;SDS011;5906;51.660;6.674;2023-10-09T11:07:05;28.23;;;15.97;;
11699;SDS011;5906;51.660;6.674;2023-10-09T11:09:46;30.30;;;16.00;;
11699;SDS011;5906;51.660;6.674;2023-10-09T11:15:38;30.13;;;16.67;;
11699;SDS011;5906;51.660;6.674;2023-10-09T11:18:25;26.83;;;15.40;;
11699;SDS011;5906;51.660;6.674;2023-10-09T11:20:55;25.70;;;15.63;;
11699;SDS011;5906;51.660;6.674;2023-10-09T11:23:31;38.27;;;16.00;;
11699;SDS011;5906;51.660;6.674;2023-10-09T11:26:04;27.87;;;17.40;;
11699;SDS011;5906;51.660;6.674;2023-10-09T11:29:05;32.10;;;16.53;;
11699;SDS011;5906;51.660;6.674;2023-10-09T11:31:58;25.00;;;15.47;;
11699;SDS011;5906;51.660;6.674;2023-10-09T11:34:28;34.53;;;15.87;;
11699;SDS011;5906;51.660;6.674;2023-10-09T11:36:59;31.30;;;16.43;;
11699;SDS011;5906;51.660;6.674;2023-10-09T11:39:30;26.43;;;15.97;;
11699;SDS011;5906;51.660;6.674;2023-10-09T11:42:07;35.63;;;16.97;;
11699;SDS011;5906;51.660;6.674;2023-10-09T11:44:35;26.53;;;15.60;;
11699;SDS011;5906;51.660;6.674;2023-10-09T11:47:21;33.23;;;17.60;;
11699;SDS011;5906;51.660;6.674;2023-10-09T11:49:55;26.47;;;16.57;;
11699;SDS011;5906;51.660;6.674;2023-10-09T11:52:31;32.00;;;15.90;;
11699;SDS011;5906;51.660;6.674;2023-10-09T11:55:05;28.13;;;17.33;;
11699;SDS011;5906;51.660;6.674;2023-10-09T11:57:44;29.07;;;15.10;;
11699;SDS011;5906;51.660;6.674;2023-10-09T12:00:11;26.40;;;15.43;;
11699;SDS011;5906;51.660;6.674;2023-10-09T12:02:57;26.63;;;15.93;;
11699;SDS011;5906;51.660;6.674;2023-10-09T12:05:32;29.83;;;14.77;;
11699;SDS011;5906;51.660;6.674;2023-10-09T12:08:01;28.13;;;15.57;;
11699;SDS011;5906;51.660;6.674;2023-10-09T12:10:29;26.20;;;14.87;;
11699;SDS011;5906;51.660;6.674;2023-10-09T12:12:56;30.20;;;15.67;;
11699;SDS011;5906;51.660;6.674;2023-10-09T12:18:00;31.17;;;16.30;;
11699;SDS011;5906;51.660;6.674;2023-10-09T12:20:28;33.03;;;16.10;;
11699;SDS011;5906;51.660;6.674;2023-10-09T12:23:02;27.57;;;15.53;;
11699;SDS011;5906;51.660;6.674;2023-10-09T12:25:33;41.60;;;15.53;;
11699;SDS011;5906;51.660;6.674;2023-10-09T12:28:02;27.53;;;15.00;;
11699;SDS011;5906;51.660;6.674;2023-10-09T12:30:30;26.83;;;14.70;;
11699;SDS011;5906;51.660;6.674;2023-10-09T12:32:57;21.23;;;13.80;;
11699;SDS011;5906;51.660;6.674;2023-10-09T12:35:24;29.90;;;16.00;;
11699;SDS011;5906;51.660;6.674;2023-10-09T12:37:52;26.37;;;14.87;;
11699;SDS011;5906;51.660;6.674;2023-10-09T12:40:23;26.90;;;15.30;;
11699;SDS011;5906;51.660;6.674;2023-10-09T12:42:51;25.07;;;15.00;;
11699;SDS011;5906;51.660;6.674;2023-10-09T12:45:19;25.33;;;15.70;;
11699;SDS011;5906;51.660;6.674;2023-10-09T12:47:53;36.30;;;16.67;;
11699;SDS011;5906;51.660;6.674;2023-10-09T12:50:25;26.17;;;14.77;;
11699;SDS011;5906;51.660;6.674;2023-10-09T12:52:55;33.43;;;15.60;;
11699;SDS011;5906;51.660;6.674;2023-10-09T12:55:23;21.83;;;15.07;;
11699;SDS011;5906;51.660;6.674;2023-10-09T12:58:01;26.10;;;15.50;;
11699;SDS011;5906;51.660;6.674;2023-10-09T13:00:33;26.20;;;15.40;;
11699;SDS011;5906;51.660;6.674;2023-10-09T13:03:05;24.13;;;14.00;;
11699;SDS011;5906;51.660;6.674;2023-10-09T13:05:49;27.30;;;16.10;;
11699;SDS011;5906;51.660;6.674;2023-10-09T13:08:25;39.43;;;15.73;;
11699;SDS011;5906;51.660;6.674;2023-10-09T13:11:05;25.77;;;15.87;;
11699;SDS011;5906;51.660;6.674;2023-10-09T13:13:38;38.00;;;16.27;;
11699;SDS011;5906;51.660;6.674;2023-10-09T13:16:10;38.40;;;16.60;;
11699;SDS011;5906;51.660;6.674;2023-10-09T13:18:58;49.03;;;16.57;;
11699;SDS011;5906;51.660;6.674;2023-10-09T13:21:35;36.00;;;16.77;;
11699;SDS011;5906;51.660;6.674;2023-10-09T13:24:07;24.33;;;15.60;;
11699;SDS011;5906;51.660;6.674;2023-10-09T13:26:42;25.07;;;15.00;;
11699;SDS011;5906;51.660;6.674;2023-10-09T13:29:17;28.93;;;15.10;;
11699;SDS011;5906;51.660;6.674;2023-10-09T13:31:50;33.00;;;14.30;;
11699;SDS011;5906;51.660;6.674;2023-10-09T13:34:24;24.50;;;14.10;;
11699;SDS011;5906;51.660;6.674;2023-10-09T13:36:54;24.30;;;15.10;;
11699;SDS011;5906;51.660;6.674;2023-10-09T13:39:35;25.83;;;14.77;;
11699;SDS011;5906;51.660;6.674;2023-10-09T13:42:06;24.93;;;14.77;;
11699;SDS011;5906;51.660;6.674;2023-10-09T13:44:37;28.03;;;15.33;;
11699;SDS011;5906;51.660;6.674;2023-10-09T13:47:08;26.60;;;14.50;;
11699;SDS011;5906;51.660;6.674;2023-10-09T13:49:46;30.03;;;14.70;;
11699;SDS011;5906;51.660;6.674;2023-10-09T13:52:17;29.33;;;14.50;;
11699;SDS011;5906;51.660;6.674;2023-10-09T13:54:48;33.67;;;14.30;;
11699;SDS011;5906;51.660;6.674;2023-10-09T13:57:16;25.63;;;14.27;;
11699;SDS011;5906;51.660;6.674;2023-10-09T13:59:43;27.60;;;14.53;;
11699;SDS011;5906;51.660;6.674;2023-10-09T14:02:15;24.63;;;13.10;;
11699;SDS011;5906;51.660;6.674;2023-10-09T14:04:45;23.97;;;14.90;;
11699;SDS011;5906;51.660;6.674;2023-10-09T14:07:16;25.27;;;14.00;;
11699;SDS011;5906;51.660;6.674;2023-10-09T14:09:43;25.13;;;13.33;;
11699;SDS011;5906;51.660;6.674;2023-10-09T14:12:10;25.57;;;15.20;;
11699;SDS011;5906;51.660;6.674;2023-10-09T14:14:41;25.30;;;14.50;;
11699;SDS011;5906;51.660;6.674;2023-10-09T14:17:19;27.87;;;13.27;;
11699;SDS011;5906;51.660;6.674;2023-10-09T14:19:51;20.67;;;11.80;;
11699;SDS011;5906;51.660;6.674;2023-10-09T14:22:20;24.00;;;11.83;;
11699;SDS011;5906;51.660;6.674;2023-10-09T14:24:53;22.50;;;12.77;;
11699;SDS011;5906;51.660;6.674;2023-10-09T14:27:25;28.53;;;13.53;;
11699;SDS011;5906;51.660;6.674;2023-10-09T14:29:56;29.27;;;13.87;;
11699;SDS011;5906;51.660;6.674;2023-10-09T14:32:26;22.37;;;12.80;;
11699;SDS011;5906;51.660;6.674;2023-10-09T14:35:01;25.63;;;14.03;;
11699;SDS011;5906;51.660;6.674;2023-10-09T14:37:29;22.43;;;13.33;;
11699;SDS011;5906;51.660;6.674;2023-10-09T14:39:57;21.33;;;11.70;;
11699;SDS011;5906;51.660;6.674;2023-10-09T14:42:25;24.70;;;13.60;;
11699;SDS011;5906;51.660;6.674;2023-10-09T14:44:54;19.37;;;12.10;;
11699;SDS011;5906;51.660;6.674;2023-10-09T14:47:24;25.57;;;12.50;;
11699;SDS011;5906;51.660;6.674;2023-10-09T14:49:52;22.27;;;11.30;;
11699;SDS011;5906;51.660;6.674;2023-10-09T14:52:20;26.80;;;11.20;;
11699;SDS011;5906;51.660;6.674;2023-10-09T14:54:47;20.97;;;11.80;;
11699;SDS011;5906;51.660;6.674;2023-10-09T14:57:16;21.77;;;11.50;;
11699;SDS011;5906;51.660;6.674;2023-10-09T14:59:44;24.27;;;11.80;;
11699;SDS011;5906;51.660;6.674;2023-10-09T15:02:12;20.47;;;11.57;;
11699;SDS011;5906;51.660;6.674;2023-10-09T15:04:39;21.23;;;10.97;;
11699;SDS011;5906;51.660;6.674;2023-10-09T15:07:07;23.90;;;12.83;;
11699;SDS011;5906;51.660;6.674;2023-10-09T15:09:34;21.93;;;11.80;;
11699;SDS011;5906;51.660;6.674;2023-10-09T15:12:03;18.70;;;11.53;;
11699;SDS011;5906;51.660;6.674;2023-10-09T15:14:33;20.37;;;11.43;;
11699;SDS011;5906;51.660;6.674;2023-10-09T15:17:00;24.70;;;12.33;;
11699;SDS011;5906;51.660;6.674;2023-10-09T15:19:29;21.70;;;11.50;;
11699;SDS011;5906;51.660;6.674;2023-10-09T15:21:56;18.77;;;11.80;;
11699;SDS011;5906;51.660;6.674;2023-10-09T15:24:26;18.77;;;10.57;;
11699;SDS011;5906;51.660;6.674;2023-10-09T15:26:56;18.43;;;10.57;;
11699;SDS011;5906;51.660;6.674;2023-10-09T15:29:25;22.10;;;10.93;;
11699;SDS011;5906;51.660;6.674;2023-10-09T15:31:57;21.13;;;10.40;;
11699;SDS011;5906;51.660;6.674;2023-10-09T15:34:32;19.63;;;10.30;;
11699;SDS011;5906;51.660;6.674;2023-10-09T15:37:01;21.47;;;10.47;;
11699;SDS011;5906;51.660;6.674;2023-10-09T15:39:30;19.90;;;10.90;;
11699;SDS011;5906;51.660;6.674;2023-10-09T15:41:58;25.43;;;10.17;;
11699;SDS011;5906;51.660;6.674;2023-10-09T15:44:25;15.00;;;10.13;;